Time;durP1;ratioP1;P1;durP2;ratioP2;P2;SDS_P1;SDS_P2;PMS_P1;PMS_P2;Temp;Humidity;BMP_temperature;BMP_pressure;BME280_temperature;BME280_humidity;BME280_pressure;Samples;Min_cycle;Max_cycle;Signal;HPM_P1;HPM_P2
2022/01/28 00:01:24;;;;;;;1999.90;601.47;;;5.20;99.90;;;;;;5138106;27;20450;-78
2022/01/28 00:04:00;;;;;;;1930.47;519.83;;;5.20;99.90;;;;;;5137896;27;20495;-77
2022/01/28 00:06:29;;;;;;;1999.90;878.83;;;5.20;99.90;;;;;;5138066;27;20458;-77
2022/01/28 00:08:57;;;;;;;1999.90;655.83;;;5.20;99.90;;;;;;5139184;27;20972;-78
2022/01/28 00:11:25;;;;;;;1999.90;501.40;;;5.20;99.90;;;;;;5138152;27;20473;-78
2022/01/28 00:14:01;;;;;;;1999.90;595.83;;;5.20;99.90;;;;;;5129256;27;20450;-78
2022/01/28 00:16:57;;;;;;;1999.90;681.73;;;5.20;99.90;;;;;;5119337;28;20411;-78
2022/01/28 00:20:18;;;;;;;1999.90;609.83;;;5.20;99.90;;;;;;5117681;28;20455;-78
2022/01/28 00:36:57;;;;;;;1999.90;591.93;;;5.20;99.90;;;;;;5127075;27;20454;-78
2022/01/28 00:39:26;;;;;;;1999.90;999.90;;;5.20;99.90;;;;;;5124035;27;20444;-78
2022/01/28 00:41:54;;;;;;;1999.90;999.90;;;5.20;99.90;;;;;;5127973;27;20450;-77
2022/01/28 00:44:22;;;;;;;1999.90;999.90;;;5.20;99.90;;;;;;5133404;27;20442;-77
2022/01/28 00:46:51;;;;;;;1946.67;474.50;;;5.20;99.90;;;;;;5136938;27;20987;-78
2022/01/28 00:49:20;;;;;;;1995.17;603.30;;;5.20;99.90;;;;;;5136685;27;20451;-78
2022/01/28 00:51:49;;;;;;;1786.20;520.43;;;5.20;99.90;;;;;;5136504;27;20451;-77
2022/01/28 00:54:18;;;;;;;1999.90;999.90;;;5.20;99.90;;;;;;5137054;27;20485;-78
2022/01/28 00:56:46;;;;;;;1999.90;653.37;;;5.30;99.90;;;;;;5135709;27;20466;-78
2022/01/28 00:59:15;;;;;;;1948.33;584.40;;;5.30;99.90;;;;;;5136897;27;20465;-79
2022/01/28 01:01:44;;;;;;;1999.77;596.20;;;5.30;99.90;;;;;;5136993;27;20450;-77
2022/01/28 01:04:13;;;;;;;1999.90;517.83;;;5.30;99.90;;;;;;5136977;27;20458;-78
2022/01/28 01:06:41;;;;;;;1999.90;567.60;;;5.30;99.90;;;;;;5138565;27;20466;-78
2022/01/28 01:09:11;;;;;;;1961.40;532.03;;;5.30;99.90;;;;;;5120227;27;20443;-77
2022/01/28 01:11:41;;;;;;;1999.90;999.90;;;5.30;99.90;;;;;;5117711;27;20534;-78
2022/01/28 01:14:09;;;;;;;1935.33;572.40;;;5.30;99.90;;;;;;5136886;27;20812;-78
2022/01/28 01:16:56;;;;;;;1863.00;535.20;;;5.30;99.90;;;;;;5136260;27;20492;-78
2022/01/28 01:19:27;;;;;;;1999.90;999.90;;;5.30;99.90;;;;;;5112909;28;20478;-78
2022/01/28 01:21:58;;;;;;;1999.90;540.70;;;5.30;99.90;;;;;;5122816;27;20478;-78
2022/01/28 01:24:36;;;;;;;1999.90;999.90;;;5.40;99.90;;;;;;5136697;27;20446;-79
2022/01/28 01:27:05;;;;;;;1999.90;389.20;;;5.30;99.90;;;;;;5121926;27;20535;-77
2022/01/28 01:29:35;;;;;;;1999.90;685.23;;;5.40;99.90;;;;;;5116168;28;20489;-78
2022/01/28 01:32:12;;;;;;;1755.70;436.23;;;5.40;99.90;;;;;;5117429;27;20435;-78
2022/01/28 01:34:40;;;;;;;1949.33;637.87;;;5.40;99.90;;;;;;5116427;28;20495;-78
2022/01/28 01:37:09;;;;;;;1755.57;443.13;;;5.40;99.90;;;;;;5117426;28;20959;-78
2022/01/28 01:39:40;;;;;;;1999.90;439.47;;;5.40;99.90;;;;;;5129498;27;20450;-79
2022/01/28 01:42:18;;;;;;;1910.57;514.77;;;5.30;99.90;;;;;;5133421;27;20874;-77
2022/01/28 01:53:02;;;;;;;1642.07;308.30;;;5.20;99.90;;;;;;5126871;27;20458;-78
2022/01/28 01:55:33;;;;;;;1665.97;403.97;;;5.30;99.90;;;;;;5120791;27;20959;-78
2022/01/28 01:58:03;;;;;;;1999.90;716.07;;;5.20;99.90;;;;;;5123651;27;20524;-77
2022/01/28 02:00:32;;;;;;;1919.50;453.97;;;5.20;99.90;;;;;;5119641;27;20450;-77
2022/01/28 02:03:00;;;;;;;1988.10;619.60;;;5.20;99.90;;;;;;5137410;27;20431;-77
2022/01/28 02:05:28;;;;;;;1999.90;620.10;;;5.20;99.90;;;;;;5134173;27;20516;-78
2022/01/28 02:08:02;;;;;;;1999.90;658.80;;;5.20;99.90;;;;;;5118736;27;20845;-78
2022/01/28 02:10:32;;;;;;;1999.90;493.77;;;5.20;99.90;;;;;;5135300;27;20426;-78
2022/01/28 02:13:01;;;;;;;1999.90;620.73;;;5.20;99.90;;;;;;5135673;27;20438;-78
2022/01/28 02:15:29;;;;;;;1999.90;563.53;;;5.30;99.90;;;;;;5135158;27;20443;-78
2022/01/28 02:17:58;;;;;;;1999.90;375.03;;;5.30;99.90;;;;;;5135050;27;20493;-77
2022/01/28 02:20:33;;;;;;;1999.90;467.40;;;5.30;99.90;;;;;;5134976;27;20477;-78
2022/01/28 02:23:02;;;;;;;1999.90;999.90;;;5.30;99.90;;;;;;5135109;27;20445;-78
2022/01/28 02:25:33;;;;;;;1999.90;999.90;;;5.30;99.90;;;;;;5117945;27;20451;-78
2022/01/28 02:28:07;;;;;;;1999.90;999.90;;;5.30;99.90;;;;;;5125992;27;20471;-77
2022/01/28 02:30:36;;;;;;;1999.90;999.90;;;5.30;99.90;;;;;;5136370;27;20982;-78
2022/01/28 02:33:11;;;;;;;1999.90;999.90;;;5.40;99.90;;;;;;5135120;27;20529;-78
2022/01/28 02:35:43;;;;;;;1999.90;999.90;;;5.40;99.90;;;;;;5124769;27;20462;-78
2022/01/28 02:38:12;;;;;;;1999.90;999.90;;;5.40;99.90;;;;;;5114459;28;20463;-79
2022/01/28 02:40:46;;;;;;;1626.53;497.57;;;5.40;99.90;;;;;;5119240;27;20519;-77
2022/01/28 02:43:29;;;;;;;1787.73;564.87;;;5.40;99.90;;;;;;5134718;27;20507;-78
2022/01/28 02:46:05;;;;;;;1838.37;542.87;;;5.40;99.90;;;;;;5106489;28;20846;-78
2022/01/28 02:48:36;;;;;;;1599.10;519.97;;;5.40;99.90;;;;;;5115825;28;20510;-78
2022/01/28 02:51:11;;;;;;;1999.90;999.90;;;5.40;99.90;;;;;;5113520;27;20443;-77
2022/01/28 02:53:42;;;;;;;1821.00;557.30;;;5.40;99.90;;;;;;5128694;27;20445;-78
2022/01/28 02:56:16;;;;;;;1709.80;552.27;;;5.40;99.90;;;;;;5134128;27;20534;-78
2022/01/28 02:58:45;;;;;;;1670.67;541.97;;;5.40;99.90;;;;;;5114679;28;20463;-78
2022/01/28 03:01:15;;;;;;;1804.60;558.93;;;5.40;99.90;;;;;;5114673;28;20454;-78
2022/01/28 03:03:50;;;;;;;1833.43;570.33;;;5.40;99.90;;;;;;5114886;28;20467;-78
2022/01/28 03:06:21;;;;;;;1646.93;496.80;;;5.40;99.90;;;;;;5114785;28;20452;-78
2022/01/28 03:08:56;;;;;;;1571.00;438.23;;;5.40;99.90;;;;;;5114070;28;20572;-78
2022/01/28 03:11:43;;;;;;;1999.90;999.90;;;5.40;99.90;;;;;;5115600;28;20435;-78
2022/01/28 03:14:35;;;;;;;1999.90;999.90;;;5.40;99.90;;;;;;5114840;28;20453;-78
2022/01/28 03:19:50;;;;;;;1625.87;519.40;;;5.40;99.90;;;;;;5134343;27;20466;-78
2022/01/28 03:22:20;;;;;;;1934.13;387.03;;;5.40;99.90;;;;;;5116209;28;20495;-79
2022/01/28 03:24:51;;;;;;;1930.23;571.57;;;5.40;99.90;;;;;;5115026;28;20483;-77
2022/01/28 03:27:39;;;;;;;1999.90;999.90;;;5.40;99.90;;;;;;5119105;28;20504;-77
2022/01/28 03:30:09;;;;;;;1999.90;999.90;;;5.40;99.90;;;;;;5116739;28;20987;-78
2022/01/28 03:32:37;;;;;;;1999.90;999.90;;;5.40;99.90;;;;;;5115095;28;20445;-78
2022/01/28 03:35:25;;;;;;;1539.43;140.93;;;5.40;99.90;;;;;;5113723;28;20538;-78
2022/01/28 03:38:00;;;;;;;1764.33;554.03;;;5.40;99.90;;;;;;5114165;28;20470;-78
2022/01/28 03:40:31;;;;;;;1902.23;565.40;;;5.40;99.90;;;;;;5114378;28;20544;-78
2022/01/28 03:42:59;;;;;;;1880.63;542.77;;;5.40;99.90;;;;;;5113828;28;20531;-77
2022/01/28 03:45:27;;;;;;;1802.63;539.50;;;5.40;99.90;;;;;;5117002;28;20529;-78
2022/01/28 03:47:57;;;;;;;1999.90;999.90;;;5.40;99.90;;;;;;5116975;28;20471;-78
2022/01/28 03:50:26;;;;;;;1779.97;528.33;;;5.40;99.90;;;;;;5132956;28;20441;-78
2022/01/28 03:52:56;;;;;;;1999.90;999.90;;;5.40;99.90;;;;;;5122476;28;20515;-78
2022/01/28 03:55:24;;;;;;;1720.07;455.67;;;5.40;99.90;;;;;;5134402;28;20939;-78
2022/01/28 03:57:52;;;;;;;1555.23;441.23;;;5.40;99.90;;;;;;5123026;28;20463;-79
2022/01/28 04:00:25;;;;;;;1999.90;999.90;;;5.40;99.90;;;;;;5113883;28;20451;-77
2022/01/28 04:03:03;;;;;;;1999.90;999.90;;;5.50;99.90;;;;;;5114768;28;20433;-78
2022/01/28 04:13:52;;;;;;;1999.90;306.50;;;5.50;99.90;;;;;;5123724;28;20493;-77
2022/01/28 04:16:32;;;;;;;1999.90;999.90;;;5.50;99.90;;;;;;5133433;28;20447;-78
2022/01/28 04:19:03;;;;;;;1999.90;999.90;;;5.50;99.90;;;;;;5114024;28;20473;-78
2022/01/28 04:21:31;;;;;;;1999.90;999.90;;;5.50;99.90;;;;;;5113223;28;20447;-78
2022/01/28 04:24:01;;;;;;;1415.97;141.07;;;5.60;99.90;;;;;;5113533;28;20454;-78
2022/01/28 04:26:29;;;;;;;1795.67;704.33;;;5.60;99.90;;;;;;5113074;28;20479;-77
2022/01/28 04:28:57;;;;;;;1573.90;435.40;;;5.60;99.90;;;;;;5113219;28;20474;-77
2022/01/28 04:31:26;;;;;;;1999.90;999.90;;;5.60;99.90;;;;;;5117054;28;20504;-78
2022/01/28 04:33:55;;;;;;;1999.90;999.90;;;5.60;99.90;;;;;;5117962;28;20526;-78
2022/01/28 04:36:37;;;;;;;1999.90;999.90;;;5.60;99.90;;;;;;5127726;27;20451;-78
2022/01/28 04:39:13;;;;;;;1815.57;700.27;;;5.50;99.90;;;;;;5138260;27;20476;-78
2022/01/28 04:41:55;;;;;;;1999.90;999.90;;;5.50;99.90;;;;;;5118853;27;20451;-78
2022/01/28 04:44:31;;;;;;;1431.27;401.37;;;5.50;99.90;;;;;;5116996;28;20504;-78
2022/01/28 04:47:05;;;;;;;1999.90;999.90;;;5.50;99.90;;;;;;5132062;27;20477;-79
2022/01/28 04:49:56;;;;;;;1999.90;999.90;;;5.40;99.90;;;;;;5139054;27;20463;-78
2022/01/28 04:55:38;;;;;;;1999.90;999.90;;;5.40;99.90;;;;;;5057903;28;20482;-77
2022/01/28 04:58:18;;;;;;;1999.90;301.47;;;5.40;99.90;;;;;;5115918;28;20467;-77
2022/01/28 05:00:58;;;;;;;1962.50;578.83;;;5.30;99.90;;;;;;5116812;28;20447;-77
2022/01/28 05:03:47;;;;;;;1939.60;497.80;;;5.30;99.90;;;;;;5137689;27;20445;-78
2022/01/28 05:09:47;;;;;;;1999.90;593.77;;;5.00;99.90;;;;;;5139680;27;20486;-78
2022/01/28 05:15:27;;;;;;;1999.90;733.70;;;4.80;99.90;;;;;;5119136;28;20830;-78
2022/01/28 05:26:27;;;;;;;1999.90;733.37;;;4.70;99.90;;;;;;5124104;27;20467;-78
2022/01/28 05:28:56;;;;;;;1999.90;778.77;;;4.70;99.90;;;;;;5118887;27;20470;-78
2022/01/28 05:31:27;;;;;;;1999.90;473.07;;;4.60;99.90;;;;;;5117163;28;20857;-78
2022/01/28 05:34:03;;;;;;;1999.90;724.90;;;4.70;99.90;;;;;;5116884;28;20435;-78
2022/01/28 05:36:35;;;;;;;1999.90;794.17;;;4.70;99.90;;;;;;5118723;28;20860;-79
2022/01/28 05:39:03;;;;;;;1999.90;756.43;;;4.70;99.90;;;;;;5124637;27;20454;-78
2022/01/28 05:41:32;;;;;;;1999.90;571.47;;;4.70;99.90;;;;;;5136574;27;20450;-78
2022/01/28 05:44:07;;;;;;;1999.90;475.87;;;4.70;99.90;;;;;;5117817;27;20477;-78
2022/01/28 05:46:35;;;;;;;1999.90;708.73;;;4.70;99.90;;;;;;5122081;27;20445;-78
2022/01/28 05:49:06;;;;;;;1999.90;642.87;;;4.70;99.90;;;;;;5128105;27;20565;-78
2022/01/28 05:51:35;;;;;;;1999.90;733.60;;;4.70;99.90;;;;;;5136743;27;20526;-78
2022/01/28 05:54:03;;;;;;;1999.90;583.30;;;4.70;99.90;;;;;;5136730;27;20466;-78
2022/01/28 05:56:33;;;;;;;1999.90;652.90;;;4.70;99.90;;;;;;5136237;27;20453;-78
2022/01/28 05:59:02;;;;;;;1999.90;549.83;;;4.80;99.90;;;;;;5135605;27;20545;-78
2022/01/28 06:01:31;;;;;;;1999.90;999.90;;;4.80;99.90;;;;;;5128282;27;20458;-79
2022/01/28 06:03:59;;;;;;;1999.90;999.90;;;4.80;99.90;;;;;;5115824;28;20521;-78
2022/01/28 06:06:28;;;;;;;1999.90;999.90;;;4.80;99.90;;;;;;5126523;27;20506;-77
2022/01/28 06:09:01;;;;;;;1999.90;999.90;;;4.80;99.90;;;;;;5136230;27;20466;-78
2022/01/28 06:11:29;;;;;;;1999.90;999.90;;;4.90;99.90;;;;;;5136798;27;20442;-78
2022/01/28 06:13:59;;;;;;;1999.90;999.90;;;4.90;99.90;;;;;;5136649;27;20457;-78
2022/01/28 06:16:29;;;;;;;1999.90;999.90;;;4.90;99.90;;;;;;5136163;27;20454;-78
2022/01/28 06:18:58;;;;;;;1999.90;999.90;;;4.90;99.90;;;;;;5136275;27;20457;-78
2022/01/28 06:21:35;;;;;;;1999.90;999.90;;;4.90;99.90;;;;;;5137207;27;20947;-78
2022/01/28 06:24:03;;;;;;;1999.90;999.90;;;5.00;99.90;;;;;;5135843;27;20919;-78
2022/01/28 06:26:31;;;;;;;1999.90;247.77;;;5.00;99.90;;;;;;5135997;27;20860;-78
2022/01/28 06:28:59;;;;;;;1999.90;999.90;;;5.00;99.90;;;;;;5134646;27;20446;-78
2022/01/28 06:31:31;;;;;;;1999.90;999.90;;;5.00;99.90;;;;;;5135322;27;20478;-78
2022/01/28 06:34:00;;;;;;;1999.90;999.90;;;5.00;99.90;;;;;;5134986;27;20443;-77
2022/01/28 06:36:30;;;;;;;1999.90;999.90;;;5.10;99.90;;;;;;5136296;27;20441;-78
2022/01/28 06:38:58;;;;;;;1999.90;999.90;;;5.10;99.90;;;;;;5134816;27;20495;-78
2022/01/28 06:41:27;;;;;;;1999.90;999.90;;;5.10;99.90;;;;;;5134864;27;20546;-79
2022/01/28 06:43:55;;;;;;;1999.90;999.90;;;5.10;99.90;;;;;;5135138;27;20458;-77
2022/01/28 06:46:24;;;;;;;1999.90;999.90;;;5.10;99.90;;;;;;5135013;27;20451;-78
2022/01/28 06:48:54;;;;;;;1999.90;736.20;;;5.20;99.90;;;;;;5134618;27;20467;-78
2022/01/28 06:51:22;;;;;;;1999.90;999.90;;;5.20;99.90;;;;;;5135443;27;20450;-78
2022/01/28 06:53:51;;;;;;;1999.90;999.90;;;5.20;99.90;;;;;;5134990;27;20553;-78
2022/01/28 06:56:23;;;;;;;1999.90;999.90;;;5.20;99.90;;;;;;5135083;27;20478;-78
2022/01/28 06:58:51;;;;;;;1999.90;999.90;;;5.20;99.90;;;;;;5135414;27;20470;-78
2022/01/28 07:01:29;;;;;;;1694.70;436.30;;;5.20;99.90;;;;;;5136447;27;20466;-78
2022/01/28 07:04:06;;;;;;;1999.90;999.90;;;5.30;99.90;;;;;;5137481;27;20426;-78
2022/01/28 07:06:34;;;;;;;1882.50;702.17;;;5.20;99.90;;;;;;5135113;27;20470;-78
2022/01/28 07:09:03;;;;;;;1999.90;744.00;;;5.20;99.90;;;;;;5135843;27;20444;-78
2022/01/28 07:11:31;;;;;;;1999.90;999.90;;;5.20;99.90;;;;;;5137015;27;20534;-78
2022/01/28 07:14:02;;;;;;;1999.90;999.90;;;5.20;99.90;;;;;;5134953;27;20856;-78
2022/01/28 07:16:30;;;;;;;1999.90;999.90;;;5.20;99.90;;;;;;5135705;27;20446;-78
2022/01/28 07:18:59;;;;;;;1418.73;422.20;;;5.20;99.90;;;;;;5135366;27;20446;-79
2022/01/28 07:21:28;;;;;;;1999.90;999.90;;;5.30;99.90;;;;;;5135119;27;20441;-78
2022/01/28 07:23:56;;;;;;;1999.90;737.67;;;5.30;99.90;;;;;;5135347;28;20454;-78
2022/01/28 07:26:27;;;;;;;1936.37;712.87;;;5.30;99.90;;;;;;5134939;28;20515;-79
2022/01/28 07:28:57;;;;;;;1939.77;731.73;;;5.30;99.90;;;;;;5135122;28;20480;-79
2022/01/28 07:31:25;;;;;;;1999.90;742.80;;;5.30;99.90;;;;;;5135609;28;20561;-78
2022/01/28 07:33:54;;;;;;;1782.77;152.63;;;5.30;99.90;;;;;;5136448;28;20447;-79
2022/01/28 07:36:25;;;;;;;1999.90;999.90;;;5.30;99.90;;;;;;5135042;28;20495;-78
2022/01/28 07:38:55;;;;;;;1999.90;734.60;;;5.30;99.90;;;;;;5136180;28;20458;-78
2022/01/28 07:41:29;;;;;;;1999.10;730.43;;;5.30;99.90;;;;;;5134507;28;20450;-78
2022/01/28 07:43:59;;;;;;;1999.90;999.90;;;5.30;99.90;;;;;;5134748;28;20438;-78
2022/01/28 07:46:28;;;;;;;1826.13;721.00;;;5.30;99.90;;;;;;5134833;28;20450;-78
2022/01/28 07:48:56;;;;;;;1868.67;193.77;;;5.30;99.90;;;;;;5134855;28;20453;-78
2022/01/28 07:51:28;;;;;;;1999.90;999.90;;;5.30;99.90;;;;;;5136381;27;20447;-78
2022/01/28 07:53:58;;;;;;;1999.90;999.90;;;5.30;99.90;;;;;;5134949;28;20495;-78
2022/01/28 07:56:28;;;;;;;1999.90;739.73;;;5.40;99.90;;;;;;5135089;28;20542;-78
2022/01/28 07:58:57;;;;;;;1999.90;370.27;;;5.40;99.90;;;;;;5134450;28;20491;-78
2022/01/28 08:01:27;;;;;;;1485.93;137.53;;;5.40;99.90;;;;;;5135082;28;20442;-78
2022/01/28 08:04:00;;;;;;;1898.53;713.90;;;5.40;99.90;;;;;;5135246;28;20450;-79
2022/01/28 08:06:30;;;;;;;1999.90;999.90;;;5.40;99.90;;;;;;5138926;27;20521;-78
2022/01/28 08:08:59;;;;;;;1795.27;696.40;;;5.40;99.90;;;;;;5138859;27;20890;-78
2022/01/28 08:11:27;;;;;;;1999.90;999.90;;;5.50;99.90;;;;;;5138412;27;20912;-79
2022/01/28 08:13:56;;;;;;;1785.03;699.33;;;5.50;99.90;;;;;;5138542;27;20462;-78
2022/01/28 08:16:24;;;;;;;1751.50;203.53;;;5.50;99.90;;;;;;5138237;27;20534;-78
2022/01/28 08:18:53;;;;;;;1921.70;722.43;;;5.50;99.90;;;;;;5138924;27;20512;-79
2022/01/28 08:21:21;;;;;;;1629.83;183.07;;;5.50;99.90;;;;;;5138622;27;20943;-79
2022/01/28 08:23:49;;;;;;;1999.90;748.30;;;5.50;99.90;;;;;;5138414;27;20454;-78
2022/01/28 08:26:21;;;;;;;1999.90;999.90;;;5.60;99.90;;;;;;5139143;27;20486;-78
2022/01/28 08:28:49;;;;;;;1999.90;357.93;;;5.60;99.90;;;;;;5138508;27;20875;-78
2022/01/28 08:31:20;;;;;;;1999.90;999.90;;;5.60;99.90;;;;;;5138559;27;20511;-78
2022/01/28 08:33:50;;;;;;;1999.90;999.90;;;5.60;99.90;;;;;;5139068;27;20474;-78
2022/01/28 08:36:19;;;;;;;1725.27;693.00;;;5.60;99.90;;;;;;5138366;27;20449;-78
2022/01/28 08:38:50;;;;;;;1999.90;999.90;;;5.60;99.90;;;;;;5139901;27;20545;-78
2022/01/28 08:41:19;;;;;;;1999.90;999.90;;;5.70;99.90;;;;;;5138665;27;20463;-78
2022/01/28 08:43:56;;;;;;;1999.90;999.90;;;5.70;99.90;;;;;;5138703;27;20434;-78
2022/01/28 08:46:24;;;;;;;1617.83;683.80;;;5.70;99.90;;;;;;5138746;27;20830;-78
2022/01/28 08:48:54;;;;;;;1167.37;384.07;;;5.70;99.90;;;;;;5138509;27;20466;-79
2022/01/28 08:51:22;;;;;;;1999.90;999.90;;;5.70;99.90;;;;;;5139672;27;20465;-78
2022/01/28 08:53:53;;;;;;;1090.87;406.27;;;5.70;99.90;;;;;;5138386;27;21030;-78
2022/01/28 08:56:22;;;;;;;1127.93;385.40;;;5.70;99.90;;;;;;5139862;27;20458;-78
2022/01/28 08:58:51;;;;;;;1999.90;999.90;;;5.70;99.90;;;;;;5140384;27;20462;-78
2022/01/28 09:01:19;;;;;;;1273.27;401.43;;;5.70;99.90;;;;;;5138428;27;20811;-79
2022/01/28 09:03:49;;;;;;;1190.80;393.07;;;5.70;99.90;;;;;;5138075;27;20446;-78
2022/01/28 09:06:19;;;;;;;1322.60;410.97;;;5.70;99.90;;;;;;5138554;27;20438;-78
2022/01/28 09:08:49;;;;;;;1150.00;391.83;;;5.70;99.90;;;;;;5137558;27;20553;-78
2022/01/28 09:11:48;;;;;;;1229.10;409.83;;;5.80;99.90;;;;;;5138157;27;20535;-78
2022/01/28 09:14:19;;;;;;;1999.90;999.90;;;5.80;99.90;;;;;;5138193;27;20438;-79
2022/01/28 09:16:48;;;;;;;1374.33;440.60;;;5.80;99.90;;;;;;5137396;27;20478;-78
2022/01/28 09:19:16;;;;;;;575.00;63.77;;;5.90;99.90;;;;;;5138960;27;20474;-78
2022/01/28 09:21:44;;;;;;;175.17;36.40;;;5.90;99.90;;;;;;5138222;27;20478;-78
2022/01/28 09:24:13;;;;;;;268.37;50.83;;;6.00;99.90;;;;;;5139262;27;20441;-79
2022/01/28 09:26:41;;;;;;;448.50;76.67;;;6.00;99.90;;;;;;5138603;27;20844;-78
2022/01/28 09:29:12;;;;;;;367.53;79.63;;;6.00;99.90;;;;;;5139621;27;20761;-79
2022/01/28 09:31:42;;;;;;;400.50;109.53;;;6.00;99.90;;;;;;5138140;27;20470;-78
2022/01/28 09:34:10;;;;;;;332.80;61.97;;;6.10;99.90;;;;;;5138982;27;20442;-78
2022/01/28 09:36:39;;;;;;;428.63;103.50;;;6.10;99.90;;;;;;5137344;27;20442;-78
2022/01/28 09:39:08;;;;;;;453.43;82.77;;;6.10;99.90;;;;;;5138184;27;20437;-78
2022/01/28 09:41:37;;;;;;;435.17;61.17;;;6.10;99.90;;;;;;5137300;27;20492;-78
2022/01/28 09:44:09;;;;;;;454.53;79.93;;;6.00;99.90;;;;;;5136941;27;20470;-78
2022/01/28 09:46:38;;;;;;;427.13;71.73;;;6.10;99.90;;;;;;5137043;27;20812;-78
2022/01/28 09:49:08;;;;;;;135.23;38.27;;;6.10;99.90;;;;;;5136920;27;20859;-78
2022/01/28 09:51:36;;;;;;;125.73;18.57;;;6.10;99.90;;;;;;5136737;27;21087;-78
2022/01/28 09:54:05;;;;;;;271.40;54.03;;;6.10;99.90;;;;;;5136942;27;20786;-78
2022/01/28 09:56:33;;;;;;;408.33;63.13;;;6.20;99.90;;;;;;5136297;27;20553;-78
2022/01/28 09:59:02;;;;;;;352.63;89.70;;;6.20;99.90;;;;;;5138187;27;20435;-78
2022/01/28 10:01:31;;;;;;;417.40;96.43;;;6.20;99.90;;;;;;5136554;27;20449;-78
2022/01/28 10:04:03;;;;;;;428.70;92.70;;;6.30;99.90;;;;;;5136239;27;20446;-78
2022/01/28 10:06:33;;;;;;;41.87;25.57;;;6.30;99.90;;;;;;5138216;27;20419;-78
2022/01/28 10:09:08;;;;;;;410.03;75.03;;;6.30;99.90;;;;;;5135823;27;20453;-78
2022/01/28 10:11:38;;;;;;;276.70;74.73;;;6.40;99.90;;;;;;5136411;27;20982;-78
2022/01/28 10:14:12;;;;;;;505.30;98.23;;;6.40;99.90;;;;;;5136555;27;20426;-78
2022/01/28 10:16:40;;;;;;;219.60;56.47;;;6.40;99.90;;;;;;5137325;27;20832;-77
2022/01/28 10:19:15;;;;;;;67.23;48.07;;;6.50;99.90;;;;;;5135993;27;20973;-78
2022/01/28 10:21:47;;;;;;;440.93;110.13;;;6.50;99.90;;;;;;5136019;27;20442;-78
2022/01/28 10:24:17;;;;;;;42.13;37.47;;;6.50;99.90;;;;;;5136445;27;20459;-78
2022/01/28 10:26:49;;;;;;;272.87;84.70;;;6.50;99.90;;;;;;5137241;27;20434;-77
2022/01/28 10:29:31;;;;;;;59.47;44.07;;;6.60;99.90;;;;;;5137204;27;20450;-78
2022/01/28 10:32:04;;;;;;;437.93;144.50;;;6.60;99.90;;;;;;5135891;27;20466;-79
2022/01/28 10:34:34;;;;;;;1716.07;375.33;;;6.60;99.90;;;;;;5136368;27;20983;-78
2022/01/28 10:37:14;;;;;;;269.50;66.37;;;6.60;99.90;;;;;;5136647;27;20493;-78
2022/01/28 10:39:48;;;;;;;744.37;168.53;;;6.70;99.90;;;;;;5135577;27;20454;-78
2022/01/28 10:42:34;;;;;;;1176.43;351.60;;;6.70;99.90;;;;;;5137589;27;20897;-78
2022/01/28 10:45:09;;;;;;;269.37;94.03;;;6.80;99.90;;;;;;5135977;27;20458;-78
2022/01/28 10:47:40;;;;;;;144.67;132.03;;;6.70;99.90;;;;;;5135583;27;20519;-78
2022/01/28 10:50:27;;;;;;;1027.80;298.33;;;6.80;99.90;;;;;;5136269;27;20440;-78
2022/01/28 10:53:03;;;;;;;278.33;117.50;;;6.80;99.90;;;;;;5137154;27;20922;-78
2022/01/28 10:55:32;;;;;;;1190.53;350.57;;;6.90;99.90;;;;;;5135723;27;21044;-78
2022/01/28 10:58:03;;;;;;;730.20;274.63;;;6.90;99.90;;;;;;5135682;27;20466;-79
2022/01/28 11:00:34;;;;;;;1516.47;421.97;;;6.90;99.90;;;;;;5135775;27;20453;-78
2022/01/28 11:03:04;;;;;;;1896.33;444.50;;;7.00;99.90;;;;;;5135717;27;20435;-78
2022/01/28 11:05:34;;;;;;;797.63;277.17;;;7.00;99.90;;;;;;5136182;27;20448;-78
2022/01/28 11:08:05;;;;;;;1583.17;459.93;;;7.00;99.90;;;;;;5136883;27;20455;-79
2022/01/28 11:10:34;;;;;;;1330.57;362.70;;;7.10;99.90;;;;;;5135879;27;20442;-79
2022/01/28 11:13:03;;;;;;;755.23;214.13;;;7.10;99.90;;;;;;5135829;27;20901;-78
2022/01/28 11:15:32;;;;;;;1008.43;396.57;;;7.10;99.90;;;;;;5136189;27;20797;-78
2022/01/28 11:18:03;;;;;;;624.37;207.00;;;7.00;99.90;;;;;;5135501;27;20466;-79
2022/01/28 11:20:36;;;;;;;403.33;153.97;;;7.10;99.90;;;;;;5135375;27;20531;-79
2022/01/28 11:23:16;;;;;;;409.50;118.73;;;7.00;99.90;;;;;;5136931;27;20431;-78
2022/01/28 11:25:57;;;;;;;641.90;216.67;;;7.00;99.90;;;;;;5135431;28;20438;-77
2022/01/28 11:28:40;;;;;;;1160.33;370.33;;;7.00;99.90;;;;;;5134969;28;21019;-77
2022/01/28 11:31:09;;;;;;;1999.90;603.43;;;7.00;99.90;;;;;;5136214;28;20458;-78
2022/01/28 11:33:45;;;;;;;1379.70;436.37;;;7.00;99.90;;;;;;5135140;28;20466;-78
2022/01/28 11:36:15;;;;;;;1999.90;746.47;;;7.00;99.90;;;;;;5136474;28;20836;-77
2022/01/28 11:38:46;;;;;;;1999.90;618.90;;;7.00;99.90;;;;;;5134755;28;20572;-78
2022/01/28 11:41:24;;;;;;;1925.77;571.50;;;7.00;99.90;;;;;;5138465;27;20455;-78
2022/01/28 11:43:56;;;;;;;1999.90;605.00;;;7.00;99.90;;;;;;5139673;27;20472;-77
2022/01/28 11:46:28;;;;;;;1727.70;519.60;;;7.00;99.90;;;;;;5140284;27;20415;-78
2022/01/28 11:49:24;;;;;;;1833.67;535.20;;;7.00;99.90;;;;;;5140514;27;20418;-79
2022/01/28 11:51:54;;;;;;;1765.67;599.93;;;7.00;99.90;;;;;;5139040;27;20437;-78
2022/01/28 11:54:37;;;;;;;1999.90;719.30;;;7.00;99.90;;;;;;5139041;27;20448;-78
2022/01/28 11:57:16;;;;;;;1822.33;589.80;;;7.10;99.90;;;;;;5139851;27;20531;-77
2022/01/28 11:59:46;;;;;;;1999.90;791.43;;;7.10;99.90;;;;;;5140808;27;20479;-78
2022/01/28 12:02:50;;;;;;;1999.90;742.47;;;7.20;99.90;;;;;;5139099;27;20843;-77
2022/01/28 12:05:42;;;;;;;1999.90;561.80;;;7.20;99.90;;;;;;5139462;27;20447;-79
2022/01/28 12:08:13;;;;;;;1999.90;831.43;;;7.30;99.90;;;;;;5140797;27;20463;-77
2022/01/28 12:10:45;;;;;;;1999.90;283.00;;;7.30;99.90;;;;;;5138823;27;20445;-77
2022/01/28 12:13:16;;;;;;;1999.90;999.90;;;7.40;99.90;;;;;;5140575;27;20802;-78
2022/01/28 12:16:04;;;;;;;933.97;59.37;;;7.40;99.90;;;;;;5138977;27;20429;-77
2022/01/28 12:18:54;;;;;;;1999.90;671.87;;;7.40;99.90;;;;;;5138402;27;21000;-77
2022/01/28 12:21:25;;;;;;;1999.90;871.73;;;7.40;99.90;;;;;;5136491;27;20826;-78
2022/01/28 12:23:54;;;;;;;1999.90;560.47;;;7.40;99.90;;;;;;5140167;27;20416;-77
2022/01/28 12:26:24;;;;;;;1999.90;786.93;;;7.40;99.90;;;;;;5138349;27;20962;-77
2022/01/28 12:28:55;;;;;;;1999.90;668.47;;;7.40;99.90;;;;;;5138244;27;20455;-78
2022/01/28 12:31:30;;;;;;;1999.90;345.40;;;7.40;99.90;;;;;;5140356;27;20451;-78
2022/01/28 12:34:02;;;;;;;1999.90;680.03;;;7.40;99.90;;;;;;5138216;27;20454;-78
2022/01/28 12:36:33;;;;;;;1999.90;819.23;;;7.40;99.90;;;;;;5140142;27;20481;-78
2022/01/28 12:39:12;;;;;;;1999.90;677.40;;;7.40;99.90;;;;;;5139292;27;20450;-77
2022/01/28 12:42:02;;;;;;;1999.90;665.53;;;7.40;99.90;;;;;;5138181;27;20807;-78
2022/01/28 12:44:32;;;;;;;1999.90;867.00;;;7.40;99.90;;;;;;5140009;27;20439;-78
2022/01/28 12:47:05;;;;;;;1999.90;893.07;;;7.40;99.90;;;;;;5138365;27;20474;-78
2022/01/28 12:49:35;;;;;;;1999.90;883.47;;;7.40;99.90;;;;;;5137791;27;20520;-78
2022/01/28 12:52:06;;;;;;;1999.90;878.87;;;7.40;99.90;;;;;;5138627;27;20451;-78
2022/01/28 12:54:37;;;;;;;1999.90;881.93;;;7.40;99.90;;;;;;5138127;27;20457;-78
2022/01/28 12:57:09;;;;;;;1999.90;685.83;;;7.40;99.90;;;;;;5137323;27;20467;-78
2022/01/28 12:59:46;;;;;;;1999.90;903.77;;;7.40;99.90;;;;;;5138012;27;20547;-77
2022/01/28 13:02:15;;;;;;;1999.90;755.30;;;7.40;99.90;;;;;;5138236;27;20835;-77
2022/01/28 13:05:11;;;;;;;1999.90;833.83;;;7.40;99.90;;;;;;5138481;27;20550;-78
2022/01/28 13:10:31;;;;;;;1999.90;800.07;;;7.40;99.90;;;;;;5136581;27;20464;-77
2022/01/28 13:13:06;;;;;;;1999.90;847.93;;;7.40;99.90;;;;;;5136645;27;20559;-78
2022/01/28 13:15:34;;;;;;;1999.90;739.70;;;7.40;99.90;;;;;;5136362;27;20438;-77
2022/01/28 13:18:05;;;;;;;1999.90;737.87;;;7.40;99.90;;;;;;5136213;27;20455;-77
2022/01/28 13:20:35;;;;;;;1979.50;603.53;;;7.40;99.90;;;;;;5138536;27;20455;-78
2022/01/28 13:23:04;;;;;;;1999.90;846.50;;;7.40;99.90;;;;;;5136728;27;20481;-78
2022/01/28 13:25:32;;;;;;;1999.90;656.07;;;7.50;99.90;;;;;;5133687;27;20441;-78
2022/01/28 13:28:03;;;;;;;1999.90;721.60;;;7.40;99.90;;;;;;5129809;27;21004;-78
2022/01/28 13:30:38;;;;;;;1999.90;856.40;;;7.50;99.90;;;;;;5115965;28;20439;-78